Time;durP1;ratioP1;P1;durP2;ratioP2;P2;SDS_P1;SDS_P2;PMS_P1;PMS_P2;Temp;Humidity;BMP_temperature;BMP_pressure;BME280_temperature;BME280_humidity;BME280_pressure;Samples;Min_cycle;Max_cycle;Signal;HPM_P1;HPM_P2
2021/05/05 00:01:14;;;;;;;5.13;1.75;;;9.90;75.30;;;9.39;64.78;99004.38;4990683;28;20049;-82
2021/05/05 00:03:55;;;;;;;5.93;1.55;;;10.00;75.20;;;9.42;64.49;99005.81;4990365;28;20073;-82
2021/05/05 00:06:36;;;;;;;4.20;1.50;;;10.00;75.10;;;9.34;64.89;98998.75;4989354;28;20197;-83
2021/05/05 00:09:14;;;;;;;5.35;1.70;;;10.00;75.00;;;9.41;64.64;99000.63;4990677;28;20038;-83
2021/05/05 00:11:52;;;;;;;7.90;1.45;;;10.00;75.20;;;9.41;64.71;98997.91;4990243;28;20042;-82
2021/05/05 00:14:30;;;;;;;4.13;1.42;;;9.90;75.00;;;9.41;64.67;98995.19;4990558;28;20069;-83
2021/05/05 00:17:08;;;;;;;4.97;1.45;;;10.00;74.90;;;9.39;64.05;99001.66;4990474;28;20043;-82
2021/05/05 00:19:47;;;;;;;4.53;1.65;;;10.00;74.80;;;9.39;64.40;98998.94;4990569;28;20100;-82
2021/05/05 00:22:22;;;;;;;3.75;1.67;;;10.00;74.90;;;9.41;64.25;98990.59;4990343;28;20047;-82
2021/05/05 00:25:00;;;;;;;4.28;1.30;;;10.00;74.90;;;9.38;64.71;98997.28;4990692;28;20135;-82
2021/05/05 00:27:36;;;;;;;5.10;1.35;;;10.00;75.00;;;9.37;64.88;99003.75;4990242;28;20046;-83
2021/05/05 00:30:18;;;;;;;2.85;1.30;;;9.90;74.90;;;9.36;64.66;99001.25;4990544;28;20050;-82
2021/05/05 00:32:53;;;;;;;7.90;1.42;;;9.90;74.80;;;9.37;64.00;98994.78;4990069;28;20563;-82
2021/05/05 00:35:32;;;;;;;6.28;1.77;;;9.90;74.80;;;9.39;64.45;99001.66;4988982;28;20050;-83
2021/05/05 00:38:10;;;;;;;3.88;1.40;;;9.90;74.90;;;9.35;64.39;99007.75;4990308;28;20458;-82
2021/05/05 00:40:48;;;;;;;6.03;1.55;;;9.90;74.80;;;9.35;64.13;99005.88;4990139;28;20046;-82
2021/05/05 00:43:26;;;;;;;4.90;1.30;;;9.90;74.90;;;9.39;64.05;98998.94;4989772;28;20047;-82
2021/05/05 00:46:04;;;;;;;3.45;1.60;;;9.90;74.80;;;9.36;63.95;99004.78;4989945;28;20074;-82
2021/05/05 00:48:36;;;;;;;3.17;1.30;;;9.90;74.90;;;9.36;63.62;98999.38;4989831;28;20054;-83
2021/05/05 00:51:16;;;;;;;5.18;1.27;;;9.90;74.50;;;9.36;63.36;99002.09;4989937;28;20768;-82
2021/05/05 00:53:55;;;;;;;4.82;1.20;;;9.80;74.20;;;9.31;63.61;98999.19;4990660;28;20108;-82
2021/05/05 00:56:30;;;;;;;5.00;1.15;;;9.80;74.30;;;9.29;63.49;99009.44;4989902;28;20050;-82
2021/05/05 00:59:05;;;;;;;3.78;1.42;;;9.80;74.20;;;9.33;63.87;99007.97;4989907;28;20049;-82
2021/05/05 01:01:42;;;;;;;3.88;1.13;;;9.80;74.50;;;9.34;64.26;99006.91;4989826;28;20042;-82
2021/05/05 01:04:20;;;;;;;5.50;1.38;;;9.80;74.80;;;9.31;64.07;98999.19;4988483;28;20086;-82
2021/05/05 01:06:59;;;;;;;4.68;1.48;;;9.80;74.90;;;9.27;63.85;99011.53;4989764;28;20477;-82
2021/05/05 01:09:42;;;;;;;6.20;1.63;;;9.80;74.90;;;9.25;64.31;99016.31;4988290;28;20529;-82
2021/05/05 01:12:20;;;;;;;4.10;1.45;;;9.80;74.80;;;9.27;64.30;99016.97;4987990;28;20050;-82
2021/05/05 01:14:59;;;;;;;3.47;1.35;;;9.80;74.90;;;9.23;63.79;99029.28;4989735;28;20081;-82
2021/05/05 01:17:33;;;;;;;3.90;1.42;;;9.80;74.10;;;9.22;63.42;99019.47;4989414;28;20565;-82
2021/05/05 01:20:14;;;;;;;4.70;1.50;;;9.80;74.00;;;9.18;63.15;99019.06;4987694;28;20414;-82
2021/05/05 01:22:45;;;;;;;;;;;9.80;73.80;;;9.16;63.51;99014.91;4969016;28;20055;-82
2021/05/05 01:25:23;;;;;;;4.45;1.40;;;9.80;73.90;;;9.18;63.95;99012.81;4980927;28;19925;-83
2021/05/05 01:28:01;;;;;;;5.95;2.22;;;9.80;74.00;;;9.16;64.19;99009.47;4989402;28;20449;-82
2021/05/05 01:30:37;;;;;;;4.35;1.65;;;9.70;74.30;;;9.18;63.99;99010.09;4988211;28;20050;-82
2021/05/05 01:33:08;;;;;;;7.57;1.75;;;9.70;74.60;;;9.21;63.86;99006.94;4989120;28;20046;-83
2021/05/05 01:35:50;;;;;;;7.05;1.80;;;9.70;74.60;;;9.17;64.11;99000.28;4988044;28;20095;-82
2021/05/05 01:38:29;;;;;;;5.50;1.70;;;9.70;74.50;;;9.15;64.07;99007.78;4989682;28;20097;-82
2021/05/05 01:41:08;;;;;;;3.83;1.75;;;9.70;74.70;;;9.15;63.95;99002.38;4989586;28;20523;-82
2021/05/05 01:43:46;;;;;;;3.58;1.33;;;9.70;74.60;;;9.15;64.36;98995.06;4989357;28;20521;-82
2021/05/05 01:46:27;;;;;;;7.32;1.70;;;9.70;74.80;;;9.11;64.36;98982.13;4988157;28;20053;-82
2021/05/05 01:49:03;;;;;;;6.65;1.77;;;9.70;74.80;;;9.11;64.42;98995.69;4988061;28;20062;-82
2021/05/05 01:51:40;;;;;;;5.43;1.73;;;9.70;75.00;;;9.13;64.79;98999.03;4989149;28;20046;-82
2021/05/05 01:54:14;;;;;;;4.32;1.70;;;9.70;74.90;;;9.15;64.28;98991.50;4989351;28;20053;-82
2021/05/05 01:56:52;;;;;;;3.00;1.38;;;9.70;75.00;;;9.14;64.69;98990.69;4989285;28;20077;-82
2021/05/05 01:59:29;;;;;;;5.18;1.58;;;9.70;75.10;;;9.15;64.50;99007.78;4987878;28;20054;-82
2021/05/05 02:02:10;;;;;;;3.60;1.70;;;9.60;75.20;;;9.13;64.93;99007.19;4987486;28;20054;-82
2021/05/05 02:04:45;;;;;;;6.47;1.73;;;9.70;75.40;;;9.11;64.84;99001.13;4987810;28;20050;-83
2021/05/05 02:07:30;;;;;;;7.95;1.70;;;9.70;75.60;;;9.09;65.26;99000.50;4987841;28;20054;-82
2021/05/05 02:10:12;;;;;;;5.55;2.20;;;9.60;75.50;;;9.08;65.23;99002.41;4987730;28;20184;-82
2021/05/05 02:12:51;;;;;;;5.80;1.95;;;9.60;75.60;;;9.05;65.00;99001.97;4987455;28;20053;-82
2021/05/05 02:15:29;;;;;;;5.10;2.13;;;9.60;75.50;;;9.06;65.44;98992.78;4987861;28;20058;-82
2021/05/05 02:18:12;;;;;;;6.88;2.05;;;9.60;75.80;;;8.98;65.08;98991.94;4989295;28;20046;-82
2021/05/05 02:20:51;;;;;;;5.72;2.20;;;9.50;75.80;;;8.97;65.62;98995.72;4987747;28;20132;-83
2021/05/05 02:23:30;;;;;;;5.22;1.88;;;9.50;76.00;;;8.96;66.01;99004.06;4987427;28;20411;-82
2021/05/05 02:26:07;;;;;;;6.72;2.20;;;9.50;76.10;;;8.96;65.82;99007.63;4987423;28;20154;-82
2021/05/05 02:28:40;;;;;;;5.05;2.30;;;9.50;76.40;;;8.98;65.32;99002.81;4990468;28;20050;-82
2021/05/05 02:31:33;;;;;;;3.92;2.05;;;9.50;76.50;;;8.97;65.68;99001.16;4990924;28;20058;-82
2021/05/05 02:34:13;;;;;;;4.70;2.42;;;9.50;76.80;;;9.00;65.56;99000.75;4992301;28;20054;-82
2021/05/05 02:36:52;;;;;;;5.97;2.30;;;9.50;76.60;;;8.98;65.56;98996.56;4990877;28;20124;-82
2021/05/05 02:39:27;;;;;;;4.78;2.08;;;9.50;76.70;;;8.95;65.81;99008.69;4992423;28;20522;-82
2021/05/05 02:42:06;;;;;;;4.85;2.17;;;9.40;76.50;;;8.96;65.99;99002.19;4992063;28;20045;-82
2021/05/05 02:44:48;;;;;;;3.95;2.05;;;9.50;76.80;;;8.92;65.71;99008.25;5002007;28;20601;-82
2021/05/05 02:47:27;;;;;;;5.53;2.28;;;9.40;76.30;;;8.95;65.57;99003.25;5011802;28;20046;-82
2021/05/05 02:50:06;;;;;;;5.13;2.20;;;9.40;76.50;;;8.91;65.58;99007.44;5010402;28;20054;-82
2021/05/05 02:52:44;;;;;;;6.03;2.28;;;9.40;76.40;;;8.89;65.25;99004.09;5011462;28;20037;-82
2021/05/05 02:55:23;;;;;;;4.40;2.10;;;9.40;76.20;;;8.87;65.43;99003.47;5010486;28;20088;-82
2021/05/05 02:58:06;;;;;;;7.97;2.38;;;9.40;76.00;;;8.79;65.75;99003.69;5011564;28;20108;-82
2021/05/05 03:00:42;;;;;;;5.15;2.00;;;9.30;75.90;;;8.84;65.53;99005.78;5011557;28;20045;-82
2021/05/05 03:03:20;;;;;;;6.32;2.05;;;9.30;76.10;;;8.77;65.25;99008.47;5011461;28;20049;-82
2021/05/05 03:05:58;;;;;;;4.10;2.10;;;9.30;76.10;;;8.83;65.12;99013.06;5011195;28;20054;-82
2021/05/05 03:08:35;;;;;;;6.78;1.95;;;9.30;76.10;;;8.78;65.10;99002.84;5011422;28;20104;-82
2021/05/05 03:11:11;;;;;;;5.70;2.40;;;9.30;76.00;;;8.81;65.39;99007.00;4996203;28;20049;-82
2021/05/05 03:13:50;;;;;;;6.03;2.20;;;9.30;75.90;;;8.82;65.11;99002.44;4991366;28;20046;-82
2021/05/05 03:16:25;;;;;;;4.90;2.40;;;9.40;75.70;;;8.82;65.08;99019.53;4991735;28;20043;-82
2021/05/05 03:19:03;;;;;;;5.10;2.50;;;9.30;76.00;;;8.85;64.93;99015.56;4991813;28;20157;-82
2021/05/05 03:21:40;;;;;;;5.97;2.50;;;9.30;75.90;;;8.87;65.15;99006.19;4991675;28;20038;-82
2021/05/05 03:24:18;;;;;;;5.32;2.50;;;9.30;76.00;;;8.91;64.66;99012.00;4991889;28;20073;-82
2021/05/05 03:26:48;;;;;;;6.35;2.67;;;9.30;76.10;;;8.86;65.19;99007.22;4991533;28;20050;-82
2021/05/05 03:29:27;;;;;;;7.55;3.28;;;9.30;76.40;;;8.81;65.54;98996.16;4991545;28;20077;-82
2021/05/05 03:32:02;;;;;;;4.72;3.30;;;9.30;76.40;;;8.85;65.05;98997.41;4991281;28;20054;-82
2021/05/05 03:34:40;;;;;;;5.70;3.45;;;9.30;76.50;;;8.81;65.55;98993.44;4991377;28;20050;-82
2021/05/05 03:37:18;;;;;;;9.30;3.80;;;9.20;76.30;;;8.77;65.12;98997.63;4989970;28;20058;-82
2021/05/05 03:39:56;;;;;;;7.10;3.28;;;9.20;76.40;;;8.73;65.17;98993.69;4991254;28;20042;-82
2021/05/05 03:42:31;;;;;;;6.93;3.75;;;9.20;76.50;;;8.69;65.97;98992.44;4990917;28;20042;-82
2021/05/05 03:45:11;;;;;;;8.82;3.53;;;9.20;76.70;;;8.65;66.09;98985.75;4991051;28;20050;-83
2021/05/05 03:47:49;;;;;;;7.35;3.67;;;9.10;76.80;;;8.59;66.38;98998.28;4989609;28;20061;-82
2021/05/05 03:50:27;;;;;;;6.30;3.72;;;9.10;76.90;;;8.57;66.02;99001.19;4990961;28;20049;-82
2021/05/05 03:53:05;;;;;;;6.15;3.40;;;9.10;77.00;;;8.55;66.35;99006.00;4990885;28;20066;-82
2021/05/05 03:55:43;;;;;;;8.43;3.90;;;9.20;77.20;;;8.56;66.63;98995.97;4990976;28;20801;-82
2021/05/05 03:58:21;;;;;;;6.70;3.83;;;9.00;77.20;;;8.58;66.52;98994.72;4991049;28;20042;-82
2021/05/05 04:01:00;;;;;;;6.90;3.80;;;9.00;77.40;;;8.55;66.38;99000.56;4990725;28;20061;-82
2021/05/05 04:03:36;;;;;;;7.32;3.60;;;9.20;77.80;;;8.59;66.48;99003.72;4990727;28;20042;-82
2021/05/05 04:06:14;;;;;;;6.88;3.58;;;9.00;77.80;;;8.64;66.88;99005.78;4989417;28;20054;-82
2021/05/05 04:08:52;;;;;;;7.25;3.85;;;9.00;78.00;;;8.65;66.51;99007.47;4990821;28;20057;-82
2021/05/05 04:11:28;;;;;;;8.02;4.07;;;9.00;78.20;;;8.62;67.27;99003.28;4990633;28;20069;-82
2021/05/05 04:14:06;;;;;;;7.78;3.65;;;9.20;78.40;;;8.64;67.47;99011.19;4990180;28;20053;-83
2021/05/05 04:16:45;;;;;;;7.30;4.00;;;9.00;78.40;;;8.63;66.61;99010.38;4989928;28;20068;-82
2021/05/05 04:19:21;;;;;;;8.38;4.80;;;9.00;78.40;;;8.63;66.61;99004.94;4990530;28;20062;-82
2021/05/05 04:21:59;;;;;;;9.30;4.85;;;9.00;78.30;;;8.65;67.17;99012.88;4989952;28;20739;-82
2021/05/05 04:24:39;;;;;;;7.95;4.22;;;9.00;78.30;;;8.64;67.03;99017.44;4990305;28;20461;-82
2021/05/05 04:27:18;;;;;;;9.20;4.30;;;9.10;78.40;;;8.57;67.35;99027.50;4990184;28;20042;-82
2021/05/05 04:29:55;;;;;;;11.85;4.63;;;9.10;78.60;;;8.61;67.90;99028.75;4990415;28;20057;-82
2021/05/05 04:32:39;;;;;;;12.27;5.43;;;9.10;79.10;;;8.68;67.65;99026.88;4989951;28;20053;-82
2021/05/05 04:35:18;;;;;;;10.80;4.75;;;9.10;79.10;;;8.72;67.76;99036.25;4990272;28;20046;-82
2021/05/05 04:37:53;;;;;;;9.48;5.10;;;9.10;79.20;;;8.71;67.33;99018.28;4990670;28;20042;-82
2021/05/05 04:40:28;;;;;;;8.55;4.38;;;9.10;79.40;;;8.72;67.26;99032.69;4990492;28;20070;-82
2021/05/05 04:43:04;;;;;;;8.63;5.00;;;9.10;79.40;;;8.70;67.58;99032.06;4989915;28;20069;-82
2021/05/05 04:45:40;;;;;;;7.53;4.47;;;9.10;79.10;;;8.61;68.07;99045.00;4990156;28;20042;-82
2021/05/05 04:48:21;;;;;;;10.23;4.80;;;9.10;79.20;;;8.60;68.10;99044.19;4990136;28;20053;-82
2021/05/05 04:50:56;;;;;;;11.88;5.70;;;9.00;79.00;;;8.64;68.11;99050.00;5000975;28;20304;-82
2021/05/05 04:53:34;;;;;;;12.60;5.85;;;9.10;79.30;;;8.66;68.16;99047.09;5009236;28;20042;-82
2021/05/05 04:56:09;;;;;;;9.80;5.40;;;9.10;79.30;;;8.66;68.21;99047.09;5009588;28;20059;-82
2021/05/05 04:58:45;;;;;;;11.15;5.38;;;9.20;79.10;;;8.71;67.68;99044.59;5009485;28;20081;-82
2021/05/05 05:01:23;;;;;;;15.07;5.85;;;9.10;79.10;;;8.76;67.35;99061.06;5009435;28;20497;-82
2021/05/05 05:03:59;;;;;;;11.85;5.90;;;9.20;79.10;;;8.71;67.78;99063.56;5009099;28;20053;-83
2021/05/05 05:06:34;;;;;;;11.27;5.63;;;9.20;79.10;;;8.76;67.65;99066.50;5009169;28;20501;-85
2021/05/05 05:09:12;;;;;;;11.52;5.95;;;9.20;78.90;;;8.79;67.73;99063.34;5009398;28;20069;-81
2021/05/05 05:11:50;;;;;;;9.85;5.25;;;9.20;79.20;;;8.82;68.08;99056.69;5009104;28;20417;-81
2021/05/05 05:14:28;;;;;;;12.90;5.93;;;9.20;79.20;;;8.83;67.49;99070.03;5009272;28;20512;-81
2021/05/05 05:17:06;;;;;;;13.48;7.20;;;9.20;79.30;;;8.82;68.01;99073.81;5009166;28;20726;-80
2021/05/05 05:19:49;;;;;;;13.13;6.07;;;9.20;79.30;;;8.80;67.88;99086.75;5009318;28;20522;-80
2021/05/05 05:22:24;;;;;;;11.75;5.80;;;9.20;79.30;;;8.82;68.28;99089.25;5007575;28;20056;-81
2021/05/05 05:25:02;;;;;;;13.13;6.60;;;9.20;79.30;;;8.83;68.52;99085.47;5009216;28;20046;-81
2021/05/05 05:27:38;;;;;;;10.75;6.28;;;9.30;79.50;;;8.84;68.20;99088.00;5136639;22;20518;-84
2021/05/05 05:30:16;;;;;;;11.13;6.43;;;9.30;79.70;;;8.87;68.20;99092.16;5009829;28;20046;-84
2021/05/05 05:32:51;;;;;;;11.18;6.65;;;9.30;79.40;;;8.86;68.26;99076.94;5008732;28;20042;-84
2021/05/05 05:35:30;;;;;;;10.52;5.88;;;9.30;79.40;;;8.76;68.50;99101.75;5007875;28;20050;-84
2021/05/05 05:38:16;;;;;;;12.60;5.00;;;9.30;79.30;;;8.65;68.07;99103.22;5011898;28;20046;-84
2021/05/05 05:40:54;;;;;;;9.02;4.07;;;9.30;78.80;;;8.61;67.54;99100.06;4988821;28;20384;-84
2021/05/05 05:43:30;;;;;;;9.93;3.30;;;9.30;78.20;;;8.63;67.43;99101.75;4988379;28;20046;-84
2021/05/05 05:46:09;;;;;;;7.90;3.20;;;9.30;78.10;;;8.67;67.86;99098.41;4987234;28;20057;-84
2021/05/05 05:48:45;;;;;;;8.65;2.83;;;9.30;78.10;;;8.71;66.82;99109.69;4989122;28;20057;-84
2021/05/05 05:51:21;;;;;;;7.50;2.33;;;9.30;78.00;;;8.73;66.52;99111.13;4989132;28;20042;-84
2021/05/05 05:53:59;;;;;;;5.30;2.92;;;9.30;78.10;;;8.73;66.43;99104.88;4989230;28;20038;-85
2021/05/05 05:56:32;;;;;;;8.50;2.75;;;9.30;78.00;;;8.73;67.04;99113.03;4991333;28;20066;-84
2021/05/05 05:59:07;;;;;;;5.85;2.92;;;9.20;78.00;;;8.76;66.72;99115.31;4992373;28;20054;-85
2021/05/05 06:01:45;;;;;;;8.15;3.03;;;9.20;78.10;;;8.69;67.94;99117.19;4989534;28;20054;-84
2021/05/05 06:04:24;;;;;;;5.32;3.00;;;9.20;78.70;;;8.69;67.99;99117.19;4993225;28;20138;-84
2021/05/05 06:07:00;;;;;;;7.72;3.65;;;9.20;79.40;;;8.64;69.15;99122.38;4990616;28;20061;-84
2021/05/05 06:09:38;;;;;;;9.07;3.88;;;9.20;79.70;;;8.66;69.41;99123.00;4995539;28;20045;-83
2021/05/05 06:12:19;;;;;;;9.27;4.80;;;9.20;80.50;;;8.70;69.45;99124.28;5001956;28;20458;-84
2021/05/05 06:14:58;;;;;;;7.13;4.50;;;9.20;80.80;;;8.71;69.65;99115.09;4982884;28;20051;-84
2021/05/05 06:17:36;;;;;;;10.70;5.18;;;9.20;81.10;;;8.67;70.38;99119.28;4998688;28;20133;-84
2021/05/05 06:20:16;;;;;;;7.22;4.88;;;9.20;81.20;;;8.57;70.88;99125.94;5011169;28;20411;-84
2021/05/05 06:22:56;;;;;;;9.32;5.07;;;9.20;81.40;;;8.60;71.00;99120.09;5009748;28;20050;-85
2021/05/05 06:25:31;;;;;;;8.25;5.00;;;9.20;81.90;;;8.58;71.39;99124.88;4999482;28;20053;-85
2021/05/05 06:28:10;;;;;;;8.38;5.80;;;9.10;82.10;;;8.58;72.24;99116.75;5011387;28;20414;-84
2021/05/05 06:30:48;;;;;;;9.38;5.82;;;9.10;82.60;;;8.60;71.68;99122.81;5011312;28;20049;-84
2021/05/05 06:33:24;;;;;;;12.98;6.97;;;9.10;82.90;;;8.65;72.18;99126.78;5011103;28;20152;-84
2021/05/05 06:36:00;;;;;;;11.05;6.63;;;9.10;83.50;;;8.65;72.17;99130.31;5010538;28;20046;-84
2021/05/05 06:38:40;;;;;;;10.48;6.07;;;9.10;83.60;;;8.56;72.26;99145.13;5010642;28;20038;-84
2021/05/05 06:41:26;;;;;;;9.68;6.07;;;9.10;83.40;;;8.57;72.60;99155.75;5010159;28;20049;-83
2021/05/05 06:44:04;;;;;;;9.32;5.43;;;9.10;83.40;;;8.38;73.07;99170.91;5009352;28;20046;-82
2021/05/05 06:46:48;;;;;;;11.95;5.50;;;9.00;83.30;;;8.43;72.77;99181.16;5007977;28;20042;-83
2021/05/05 06:49:24;;;;;;;;;;;9.00;83.50;;;8.30;71.77;99194.63;5010289;28;20060;-82
2021/05/05 06:52:02;;;;;;;7.10;4.22;;;9.00;83.00;;;8.00;71.84;99203.06;5007449;28;19925;-82
2021/05/05 06:54:45;;;;;;;5.28;3.20;;;8.80;81.80;;;8.03;71.66;99189.94;5009550;28;20049;-83
2021/05/05 06:57:17;;;;;;;6.50;2.78;;;8.70;82.30;;;8.05;71.23;99197.03;5006533;28;20504;-83
2021/05/05 06:59:58;;;;;;;4.85;3.10;;;8.70;82.60;;;8.05;71.57;99195.16;4992063;28;20050;-84
2021/05/05 07:02:38;;;;;;;5.00;3.03;;;8.60;82.70;;;8.09;72.23;99203.72;4989652;28;20052;-84
2021/05/05 07:05:18;;;;;;;5.60;4.15;;;8.60;83.10;;;8.09;72.52;99199.16;4990337;28;20050;-83
2021/05/05 07:07:54;;;;;;;6.45;3.80;;;8.60;83.60;;;8.09;72.14;99203.72;4988827;28;20435;-84
2021/05/05 07:10:33;;;;;;;7.55;4.20;;;8.60;83.60;;;8.01;72.71;99207.44;4989605;28;20081;-84
2021/05/05 07:13:09;;;;;;;6.40;3.85;;;8.60;83.90;;;8.09;72.25;99210.00;4989315;28;20050;-82
2021/05/05 07:15:47;;;;;;;5.30;3.40;;;8.60;83.90;;;8.11;72.57;99202.50;4989507;28;20078;-84
2021/05/05 07:18:22;;;;;;;5.40;3.65;;;8.60;83.90;;;8.12;72.80;99204.16;5001045;28;20050;-83
2021/05/05 07:20:58;;;;;;;6.05;3.80;;;8.60;84.20;;;8.15;72.48;99200.22;5008669;28;20046;-83
2021/05/05 07:23:33;;;;;;;5.68;4.00;;;8.60;84.40;;;8.20;72.86;99201.25;5009348;28;20117;-83
2021/05/05 07:26:07;;;;;;;5.43;4.15;;;8.60;84.60;;;8.23;73.83;99198.16;5009734;28;20046;-83
2021/05/05 07:28:46;;;;;;;6.32;3.60;;;8.60;85.00;;;8.29;73.45;99196.50;5010658;28;20108;-83
2021/05/05 07:31:24;;;;;;;6.63;3.75;;;8.70;85.60;;;8.36;74.09;99204.69;5008910;28;20113;-83
2021/05/05 07:34:02;;;;;;;7.20;3.92;;;8.70;85.90;;;8.44;73.95;99207.25;5009394;28;20117;-83
2021/05/05 07:36:42;;;;;;;5.22;3.67;;;8.80;86.10;;;8.53;74.61;99206.03;5010759;28;20042;-83
2021/05/05 07:39:33;;;;;;;7.63;3.75;;;8.80;86.60;;;8.47;75.74;99212.25;5008745;28;20062;-82
2021/05/05 07:45:32;;;;;;;7.05;3.22;;;8.90;87.60;;;8.58;76.31;99208.94;4973122;28;20045;-83
2021/05/05 07:48:12;;;;;;;6.05;3.65;;;9.00;87.40;;;8.57;75.80;99218.13;5009522;28;20054;-83
2021/05/05 07:50:50;;;;;;;4.70;3.33;;;9.00;87.30;;;8.61;75.72;99219.38;4997855;28;20061;-83
2021/05/05 07:53:29;;;;;;;8.10;4.07;;;9.00;87.50;;;8.61;75.97;99224.00;5003115;28;20077;-82
2021/05/05 07:56:05;;;;;;;10.73;4.22;;;9.00;87.30;;;8.61;76.27;99222.09;4989013;28;20050;-83
2021/05/05 07:58:41;;;;;;;9.85;4.30;;;9.20;87.30;;;8.58;76.09;99230.63;4987166;28;20046;-83
2021/05/05 08:01:20;;;;;;;7.47;4.13;;;9.20;86.70;;;8.60;75.50;99234.00;4987664;28;20492;-83
2021/05/05 08:03:55;;;;;;;8.38;3.80;;;9.20;86.50;;;8.64;75.19;99228.16;4988321;28;20128;-83
2021/05/05 08:06:38;;;;;;;7.38;4.03;;;9.20;86.40;;;8.65;75.23;99236.09;4987038;28;20054;-83
2021/05/05 08:09:16;;;;;;;6.32;3.92;;;9.20;86.10;;;8.65;75.29;99243.41;5003615;28;20112;-82
2021/05/05 08:11:52;;;;;;;6.97;3.63;;;9.20;86.10;;;8.67;74.95;99244.03;4988220;28;20046;-83
2021/05/05 08:14:31;;;;;;;5.55;3.20;;;9.20;86.10;;;8.72;75.11;99246.94;5004867;28;20050;-83
2021/05/05 08:17:07;;;;;;;7.53;3.13;;;9.20;86.10;;;8.76;75.54;99240.94;5008302;28;20045;-83
2021/05/05 08:19:42;;;;;;;4.22;2.50;;;9.30;86.40;;;8.79;75.52;99250.53;5008296;28;20046;-83
2021/05/05 08:22:16;;;;;;;4.78;2.70;;;9.30;86.60;;;8.85;76.32;99249.69;5022670;28;20041;-83
2021/05/05 08:24:54;;;;;;;4.55;2.00;;;9.40;87.10;;;8.89;77.09;99261.84;5007680;28;20419;-83
2021/05/05 08:27:32;;;;;;;3.78;2.10;;;9.60;88.00;;;8.89;77.03;99259.13;5005041;28;20144;-82
2021/05/05 08:30:09;;;;;;;3.13;1.52;;;9.60;87.60;;;9.03;76.32;99262.69;5007360;28;20046;-83
2021/05/05 08:32:47;;;;;;;3.97;1.88;;;9.60;87.60;;;9.07;76.98;99260.41;5007066;28;20042;-82
2021/05/05 08:35:25;;;;;;;4.13;2.25;;;9.70;87.60;;;9.15;76.47;99257.50;4992154;28;20046;-83
2021/05/05 08:38:00;;;;;;;6.53;3.90;;;9.70;87.70;;;9.24;76.04;99261.69;4988693;28;20408;-83
2021/05/05 08:40:39;;;;;;;7.47;4.68;;;9.80;87.40;;;9.23;76.67;99265.44;4986335;28;20462;-83
2021/05/05 08:43:17;;;;;;;9.10;5.53;;;9.80;87.30;;;9.17;76.42;99260.84;4986978;28;20499;-82
2021/05/05 08:45:57;;;;;;;7.70;4.88;;;9.90;86.60;;;9.25;77.64;99260.63;4987103;28;20101;-83
2021/05/05 08:48:33;;;;;;;10.18;5.03;;;10.00;87.30;;;9.31;77.35;99258.97;4986064;28;20754;-83
2021/05/05 08:51:10;;;;;;;12.07;4.47;;;10.10;87.30;;;9.34;77.45;99262.09;4988638;28;20046;-83
2021/05/05 08:53:43;;;;;;;9.40;4.32;;;10.20;86.90;;;9.36;79.02;99265.44;5005992;28;20507;-83
2021/05/05 08:56:23;;;;;;;7.70;3.90;;;10.20;87.80;;;9.43;78.43;99261.94;5008128;28;20409;-83
2021/05/05 08:59:01;;;;;;;10.25;3.97;;;10.30;88.10;;;9.39;77.24;99270.47;5006196;28;20121;-83
2021/05/05 09:01:42;;;;;;;6.53;3.65;;;10.40;86.30;;;9.48;76.78;99272.97;5008554;28;20050;-83
2021/05/05 09:04:20;;;;;;;6.93;3.20;;;10.40;85.50;;;9.53;76.43;99275.91;5006534;28;20057;-83
2021/05/05 09:06:56;;;;;;;8.10;3.90;;;10.50;85.70;;;9.53;75.55;99278.63;5005317;28;20144;-84
2021/05/05 09:09:46;;;;;;;8.02;3.78;;;10.50;84.80;;;9.44;74.37;99278.00;5006209;28;20088;-84
2021/05/05 09:12:25;;;;;;;8.57;3.53;;;10.40;83.80;;;9.48;74.65;99286.56;5006625;28;20060;-84
2021/05/05 09:15:04;;;;;;;6.30;3.50;;;10.40;83.70;;;9.48;74.55;99292.84;4995502;28;20046;-84
2021/05/05 09:18:02;;;;;;;;;;;10.50;83.60;;;9.57;74.26;99283.44;4978521;28;20570;-84
2021/05/05 09:20:49;;;;;;;8.65;4.00;;;10.50;83.60;;;9.64;74.79;99278.00;4987022;28;19932;-84
2021/05/05 09:23:52;;;;;;;8.80;3.35;;;10.50;84.10;;;9.59;73.52;99280.50;4987391;28;20048;-84
2021/05/05 09:26:48;;;;;;;7.97;3.28;;;10.50;82.50;;;9.59;73.74;99288.66;4990001;28;20462;-84
2021/05/05 09:29:40;;;;;;;9.52;3.50;;;10.50;83.00;;;9.65;73.22;99290.53;4997591;28;20041;-84
2021/05/05 09:32:20;;;;;;;11.65;3.10;;;10.60;83.00;;;9.55;72.94;99295.56;4995274;28;20073;-84
2021/05/05 09:35:04;;;;;;;9.00;3.17;;;10.60;82.00;;;9.52;72.01;99302.25;4994828;28;20057;-84
2021/05/05 09:37:42;;;;;;;10.38;3.42;;;10.50;81.10;;;9.48;71.40;99308.28;4991970;28;20049;-84
2021/05/05 09:40:19;;;;;;;11.27;3.28;;;10.50;80.50;;;9.46;70.90;99303.09;4990323;28;20078;-86
2021/05/05 09:42:57;;;;;;;9.75;3.17;;;10.40;80.00;;;9.33;70.68;99311.22;4992448;28;20042;-81
2021/05/05 09:45:35;;;;;;;9.52;3.38;;;10.40;80.10;;;9.31;71.98;99325.00;4994340;28;20514;-83
2021/05/05 09:48:08;;;;;;;8.20;3.20;;;10.30;80.80;;;9.34;72.24;99330.00;4993203;28;20092;-83
2021/05/05 09:50:49;;;;;;;12.27;3.78;;;10.20;81.20;;;9.39;72.85;99318.53;4991275;28;20100;-82
2021/05/05 09:53:36;;;;;;;8.30;3.33;;;10.20;82.20;;;9.41;73.04;99326.47;5006820;28;20039;-82
2021/05/05 09:56:21;;;;;;;9.35;3.72;;;10.20;82.40;;;9.31;73.48;99332.28;4993101;28;20142;-81
2021/05/05 09:59:02;;;;;;;13.85;4.10;;;10.20;82.60;;;9.38;74.12;99328.53;4995767;28;20096;-82
2021/05/05 10:01:41;;;;;;;11.10;3.80;;;10.20;83.40;;;9.32;73.42;99342.94;4995987;28;20046;-82
2021/05/05 10:04:31;;;;;;;10.73;4.05;;;10.20;82.60;;;9.41;72.43;99348.19;4994221;28;20519;-82
2021/05/05 10:07:41;;;;;;;9.02;3.85;;;10.30;82.10;;;9.52;74.92;99344.84;4993881;28;20042;-81
2021/05/05 10:13:12;;;;;;;10.23;3.97;;;10.40;85.10;;;9.65;75.95;99363.88;4992240;28;20050;-83
2021/05/05 10:15:50;;;;;;;7.03;2.40;;;10.50;85.10;;;9.72;75.09;99370.16;4995680;28;20049;-83
2021/05/05 10:18:29;;;;;;;8.38;2.92;;;10.60;84.20;;;9.74;76.17;99373.50;4994052;28;20055;-82
2021/05/05 10:21:14;;;;;;;9.40;3.20;;;10.70;84.90;;;9.85;76.38;99373.94;4995802;28;20054;-83
2021/05/05 10:24:00;;;;;;;7.72;2.85;;;10.80;85.40;;;9.91;75.51;99373.09;4992681;28;20082;-83
2021/05/05 10:26:47;;;;;;;9.57;3.22;;;10.90;84.50;;;9.96;76.27;99379.59;5009393;28;20092;-83
2021/05/05 10:29:28;;;;;;;8.27;3.20;;;10.90;84.40;;;9.98;76.36;99379.38;5008018;28;20057;-83
2021/05/05 10:32:10;;;;;;;8.15;2.78;;;11.00;84.30;;;10.01;75.92;99376.22;5000675;28;20388;-85
2021/05/05 10:34:53;;;;;;;9.32;2.70;;;11.10;83.80;;;10.08;75.06;99387.94;5014773;28;20045;-84
2021/05/05 10:37:55;;;;;;;6.68;2.42;;;11.10;83.30;;;10.11;74.86;99398.41;5014608;28;20042;-84
2021/05/05 10:40:36;;;;;;;9.63;2.28;;;11.20;82.70;;;10.10;72.34;99391.28;5013239;28;20042;-83
2021/05/05 10:43:16;;;;;;;5.17;1.97;;;11.20;80.70;;;10.15;71.33;99402.38;5027350;28;20105;-83
2021/05/05 10:45:54;;;;;;;4.97;1.83;;;11.10;80.00;;;10.02;70.41;99398.84;5011662;28;20434;-84
2021/05/05 10:49:17;;;;;;;5.45;1.65;;;11.10;78.70;;;10.02;69.65;99399.66;5012308;28;20049;-86
2021/05/05 10:52:10;;;;;;;6.32;1.83;;;11.10;78.40;;;9.88;68.13;99417.84;4967742;28;20050;-84
2021/05/05 10:55:00;;;;;;;5.68;2.00;;;11.10;76.60;;;9.97;69.14;99422.03;4970942;28;20059;-85
2021/05/05 10:57:41;;;;;;;8.57;2.03;;;11.10;77.20;;;10.00;68.96;99426.22;4988261;28;20046;-84
2021/05/05 11:00:23;;;;;;;8.27;1.90;;;11.00;77.20;;;10.03;69.28;99423.06;5010457;28;20153;-84
2021/05/05 11:03:03;;;;;;;9.13;2.45;;;11.00;77.90;;;10.02;69.74;99426.84;5010086;28;20409;-84
2021/05/05 11:05:47;;;;;;;15.73;3.10;;;11.00;78.00;;;10.05;69.82;99426.44;5008822;28;20053;-84
2021/05/05 11:08:44;;;;;;;8.73;2.45;;;11.00;78.60;;;10.02;70.41;99445.03;5009704;28;20473;-85
2021/05/05 11:11:41;;;;;;;9.32;2.42;;;11.00;79.10;;;10.01;71.31;99433.31;5025708;28;20045;-86
2021/05/05 11:14:52;;;;;;;5.50;2.55;;;10.90;80.10;;;10.03;70.57;99442.09;5010308;28;20037;-84
2021/05/05 11:17:37;;;;;;;9.45;2.72;;;10.90;79.70;;;9.86;70.50;99468.00;5009309;28;20052;-85
2021/05/05 11:20:28;;;;;;;8.48;2.63;;;10.90;79.00;;;9.86;70.37;99460.72;5008347;28;20076;-84
2021/05/05 11:23:04;;;;;;;9.27;2.88;;;10.80;79.30;;;9.88;71.17;99463.19;5009144;28;20096;-84
2021/05/05 11:25:42;;;;;;;8.30;2.75;;;10.80;80.20;;;9.95;71.44;99474.91;5010505;28;20068;-85
2021/05/05 11:31:50;;;;;;;9.27;2.80;;;10.90;81.60;;;9.97;70.59;99502.72;5026747;28;20133;-90